• Join FlightAware (Why Join?)
  • Login
  • US Flag 
12:11AM EDT


 

Airport Tracker/Info


-or-


 

Live Flight TrackerFlight Track Log ✈ UAL139 ✈ 01-Feb-2014 ✈ KDEN - RJAA / NRT

Flight Track Log - Related Links

Times and Time Zones

All times are in EST time to prevent confusion due to time zone crossing. See the UAL139 flight status page for this flight to view local times or setup timezone preferences in your user account.

Time Position Orientation Groundspeed Altitude Reporting Facility
EST Latitude Longitude Course Direction KTS MPH feet Rate Location/Type
02:43PM 39.8557 -104.6966 354° North 72 83  Level FlightAware ADS-B
02:43PM 39.8678 -104.6964 North 153 176 5,400 7,440 Climbing FlightAware ADS-B
02:44PM 39.8850 -104.6964 360° North 200 230 5,600 1,440 Climbing FlightAware ADS-B
02:44PM 39.9052 -104.6967 359° North 209 241 6,400 2,340 Climbing FlightAware ADS-B
02:44PM 39.9197 -104.6974 358° North 218 251 7,200 1,800 Climbing FlightAware ADS-B (KEIK)
02:45PM 39.9477 -104.7051 348° North 235 270 7,700 1,440 Climbing FlightAware ADS-B (KEIK)
02:45PM 39.9701 -104.7111 349° North 255 293 8,200 1,920 Climbing FlightAware ADS-B (KEIK)
02:45PM 39.9955 -104.7178 349° North 268 308 9,000 2,520 Climbing FlightAware ADS-B (KEIK)
02:46PM 40.0182 -104.7241 348° North 275 316 9,800 1,980 Climbing FlightAware ADS-B (KEIK)
02:46PM 40.0552 -104.7361 346° North 303 349 10,700 1,680 Climbing FlightAware ADS-B
02:47PM 40.1114 -104.7617 341° North 333 383 11,800 2,100 Climbing FlightAware ADS-B (KBJC)
02:47PM 40.1507 -104.7800 340° North 340 391 13,100 2,700 Climbing FlightAware ADS-B
02:48PM 40.2096 -104.8080 340° North 348 400 14,800 2,640 Climbing FlightAware ADS-B (KBJC)
02:49PM 40.2704 -104.8359 341° North 356 410 16,600 2,280 Climbing FlightAware ADS-B (KBJC)
02:49PM 40.3424 -104.8698 340° North 365 420 18,100 1,920 Climbing FlightAware ADS-B (KEIK)
02:50PM 40.3921 -104.8930 340° North 377 434 19,000 2,460 Climbing FlightAware ADS-B
02:51PM 40.4606 -104.9252 340° North 365 420 21,200 3,180 Climbing FlightAware ADS-B
02:51PM 40.5022 -104.9443 341° North 346 398 23,400 1,860 Climbing FlightAware ADS-B (KBJC)
02:52PM 40.5808 -104.9814 340° North 378 435 23,900 660 Climbing FlightAware ADS-B (KEIK)
02:52PM 40.6211 -105.0005 340° North 384 442 24,100 1,140 Climbing FlightAware ADS-B (KBJC)
02:53PM 40.6211 -105.0005 340° North 402 463 24,900 1,020 Climbing FlightAware ADS-B (KBJC)
02:53PM 40.7301 -105.0515 340° North 415 478 25,400 1,320 Climbing FlightAware ADS-B
02:54PM 40.7678 -105.0760 334° Northwest 414 476 26,000 1,200 Climbing FlightAware ADS-B
02:54PM 40.8033 -105.1112 323° Northwest 415 478 26,400 1,200 Climbing FlightAware ADS-B
02:55PM 40.7704 -105.0782 143° Southeast 425 489 27,600 1,500 Climbing FlightAware ADS-B (KLHQ)
02:56PM 40.9331 -105.2582 320° Northwest 427 491 28,600 1,440 Climbing FlightAware ADS-B (KEIK)
02:56PM 40.9331 -105.2582 320° Northwest 428 493 28,900 1,140 Climbing FlightAware ADS-B
02:57PM 41.0028 -105.3558 313° West 434 499 29,800 1,200 Climbing FlightAware ADS-B (KEIK)
02:57PM 41.0812 -105.4802 310° West 437 503 30,700 1,200 Climbing FlightAware ADS-B (KEIK)
02:58PM 41.1352 -105.5657 310° West 443 510 31,400 960 Climbing FlightAware ADS-B (KEIK)
02:59PM 41.1880 -105.6498 310° West 447 514 32,100 840 Climbing FlightAware ADS-B (KEIK)
02:59PM 41.2397 -105.7322 310° West 453 521 32,600 900 Climbing FlightAware ADS-B (KEIK)
03:00PM 41.2911 -105.8144 310° West 455 524 33,400 780 Climbing FlightAware ADS-B (KEIK)
03:01PM 41.3567 -105.9156 311° West 467 537 33,700 780 Climbing FlightAware ADS-B (KEIK)
03:01PM 41.4055 -105.9914 311° West 462 532 34,500 1,140 Climbing FlightAware ADS-B (KEIK)
03:02PM 41.4683 -106.0890 311° West 459 528 35,300 960 Climbing FlightAware ADS-B (KEIK)
03:03PM 41.5270 -106.1812 310° West 457 526 35,900 480 Climbing FlightAware ADS-B (KEIK)
03:03PM 41.5756 -106.2577 310° West 455 524 36,000 60 Climbing FlightAware ADS-B (KEIK)
03:04PM 41.6307 -106.3438 311° West 453 521 36,000  Level FlightAware ADS-B (KEIK)
03:05PM 41.6712 -106.4080 310° West 453 521 36,000  Level FlightAware ADS-B (KEIK)
03:06PM 41.7539 -106.5392 310° West 456 525 36,000  Level FlightAware ADS-B (KEIK)
03:06PM 41.7839 -106.5850 310° West 451 519 36,000  Level Denver Center
03:07PM 41.8744 -106.7308 310° West 457 526 36,000  Level Denver Center
03:08PM 41.9522 -106.8556 310° West 457 526 36,000 -420 Level Denver Center
03:09PM 42.0453 -107.0028 310° West 460 529 35,200 -600 Descending Denver Center
03:10PM 42.1222 -107.1300 309° West 461 531 34,800 -480 Descending Denver Center
03:11PM 42.2131 -107.2775 310° West 459 528 34,300 -420 Descending Denver Center
03:12PM 42.2897 -107.4019 310° West 454 522 34,000 -180 Descending Denver Center
03:13PM 42.3767 -107.5444 310° West 444 511 34,000  Level Denver Center
03:14PM 42.4394 -107.6481 309° West 446 513 34,000  Level Salt Lake Center
03:15PM 42.5144 -107.7722 309° West 447 514 34,000  Level Salt Lake Center
03:16PM 42.6017 -107.9144 310° West 442 509 34,000  Level Salt Lake Center
03:17PM 42.6744 -108.0386 309° West 440 506 34,000  Level Salt Lake Center
03:18PM 42.7492 -108.1625 309° West 442 509 34,000  Level Salt Lake Center
03:19PM 42.8367 -108.3108 309° West 448 516 34,000  Level Salt Lake Center
03:20PM 42.9114 -108.4372 309° West 450 518 34,000  Level Salt Lake Center
03:21PM 42.9925 -108.5750 309° West 447 514 34,000  Level Salt Lake Center
03:22PM 43.0714 -108.7089 309° West 451 519 34,000  Level Salt Lake Center
03:23PM 43.1500 -108.8433 309° West 452 520 34,000  Level Salt Lake Center
03:24PM 43.2267 -108.9761 308° West 446 513 34,000  Level Salt Lake Center
03:25PM 43.3044 -109.1083 309° West 446 513 34,000  Level Salt Lake Center
03:26PM 43.3972 -109.2703 308° West 450 518 34,000  Level Salt Lake Center
03:27PM 43.4739 -109.4039 308° West 446 513 34,000  Level Salt Lake Center
03:28PM 43.5556 -109.5461 308° West 447 514 34,000  Level Salt Lake Center
03:30PM 43.6278 -109.6750 308° West 445 512 34,000  Level Salt Lake Center
03:31PM 43.7003 -109.8031 308° West 443 510 34,000  Level Salt Lake Center
03:32PM 43.7842 -109.9514 308° West 438 504 34,000  Level Salt Lake Center
03:33PM 43.8572 -110.0786 309° West 440 506 34,000  Level Salt Lake Center
03:34PM 43.9397 -110.2283 307° West 439 505 34,000  Level Salt Lake Center
03:35PM 44.0111 -110.3567 308° West 439 505 34,000  Level Salt Lake Center
03:36PM 44.0822 -110.4839 308° West 436 502 34,000  Level Salt Lake Center
03:37PM 44.1647 -110.6358 307° West 440 506 34,000  Level Salt Lake Center
03:38PM 44.2353 -110.7647 307° West 438 504 34,100 480 Climbing Salt Lake Center
03:39PM 44.3172 -110.9139 308° West 434 499 35,000 780 Climbing Salt Lake Center
03:40PM 44.3875 -111.0442 307° West 439 505 35,800 720 Climbing Salt Lake Center
03:41PM 44.4583 -111.1742 307° West 441 507 36,500 780 Climbing Salt Lake Center
03:42PM 44.5406 -111.3269 307° West 442 509 37,400 660 Climbing Salt Lake Center
03:43PM 44.6175 -111.4708 307° West 436 502 37,900 240 Climbing Salt Lake Center
03:44PM 44.6853 -111.5994 307° West 433 498 38,000  Climbing Salt Lake Center
03:45PM 44.7558 -111.7319 307° West 441 507 38,000  Level Salt Lake Center
03:46PM 44.8367 -111.8856 307° West 438 504 38,000  Level Salt Lake Center
03:47PM 44.9061 -112.0181 307° West 439 505 38,000  Level Salt Lake Center
03:48PM 44.9867 -112.1736 306° West 439 505 38,000  Level Salt Lake Center
03:49PM 45.0561 -112.3069 306° West 440 506 38,000  Level Salt Lake Center
03:50PM 45.1367 -112.4642 306° West 443 510 38,000  Level Salt Lake Center
03:51PM 45.2056 -112.5978 306° West 440 506 38,000  Level Salt Lake Center
03:52PM 45.2739 -112.7319 306° West 439 505 38,000  Level Salt Lake Center
03:53PM 45.3528 -112.8892 306° West 439 505 38,000  Level Salt Lake Center
03:54PM 45.4264 -113.0319 306° West 438 504 38,000  Level Salt Lake Center
03:55PM 45.4978 -113.1756 305° West 437 503 38,000  Level Salt Lake Center
03:56PM 45.5689 -113.3186 305° West 436 502 38,000  Level Salt Lake Center
03:57PM 45.6425 -113.4633 306° West 440 506 38,000  Level Salt Lake Center
03:58PM 45.7161 -113.6094 306° West 444 511 38,000 -60 Level Salt Lake Center
03:59PM 45.7819 -113.7411 306° West 436 502 37,900  Descending Salt Lake Center
04:00PM 45.8508 -113.8850 305° West 438 504 38,000  Climbing Salt Lake Center
04:01PM 45.9222 -114.0308 305° West 445 512 38,000 -60 Level Salt Lake Center
04:02PM 45.9919 -114.1739 305° West 442 509 37,900  Descending Salt Lake Center
04:03PM 46.0617 -114.3181 305° West 439 505 38,000  Climbing Salt Lake Center
04:04PM 46.1458 -114.4917 305° West 441 507 38,000  Level Salt Lake Center
04:05PM 46.2147 -114.6367 305° West 438 504 38,000  Level Salt Lake Center
04:06PM 46.2836 -114.7831 304° West 441 507 38,000  Level Salt Lake Center
04:07PM 46.3517 -114.9275 304° West 436 502 38,000  Level Seattle Center
04:08PM 46.4281 -115.0933 304° West 440 506 38,000  Level Seattle Center
04:09PM 46.4969 -115.2417 304° West 443 510 38,000 -60 Level Seattle Center
04:11PM 46.5658 -115.3875 305° West 441 507 37,900  Descending Seattle Center
04:12PM 46.6342 -115.5358 304° West 442 509 38,000  Climbing Seattle Center
04:13PM 46.7019 -115.6819 304° West 439 505 38,000 -60 Level Seattle Center
04:14PM 46.7689 -115.8294 304° West 438 504 37,900 -60 Descending Seattle Center
04:15PM 46.8361 -115.9783 303° West 438 504 37,900  Level Seattle Center
04:16PM 46.9036 -116.1272 304° West 441 507 38,000  Climbing Seattle Center
04:17PM 46.9706 -116.2761 303° West 439 505 37,900  Descending Seattle Center
04:18PM 47.0367 -116.4258 303° West 438 504 38,000  Climbing Seattle Center
04:19PM 47.1050 -116.5739 304° West 439 505 37,900 -60 Descending Seattle Center
04:20PM 47.1714 -116.7225 303° West 437 503 37,900  Level Seattle Center
04:21PM 47.2381 -116.8733 303° West 439 505 38,000  Climbing Seattle Center
04:22PM 47.3047 -117.0258 303° West 442 509 37,900  Descending Seattle Center
04:23PM 47.3717 -117.1764 303° West 435 501 38,000  Climbing Seattle Center
04:24PM 47.4364 -117.3300 302° West 434 499 37,900 -60 Descending Seattle Center
04:25PM 47.5025 -117.4808 303° West 433 498 37,900  Level Seattle Center
04:26PM 47.5658 -117.6333 302° West 433 498 37,900  Level Seattle Center
04:27PM 47.6119 -117.7992 292° West 437 503 37,900  Level Seattle Center
04:33PM 47.9042 -118.8820 292° West 435 501 38,000  Climbing FlightAware ADS-B
04:34PM 47.9485 -119.0510 291° West 438 504 38,000  Level FlightAware ADS-B
04:34PM 47.9710 -119.1370 291° West 438 504 38,000  Level FlightAware ADS-B
04:35PM 47.9949 -119.2290 291° West 438 504 38,000  Level FlightAware ADS-B
04:36PM 48.0170 -119.3140 291° West 439 505 38,000  Level FlightAware ADS-B
04:36PM 48.0423 -119.4130 291° West 439 505 38,000  Level FlightAware ADS-B
04:37PM 48.0646 -119.4990 291° West 441 507 38,000  Level FlightAware ADS-B
04:37PM 48.0866 -119.5850 291° West 442 509 38,000  Level FlightAware ADS-B
04:38PM 48.1084 -119.6710 291° West 441 507 38,000  Level FlightAware ADS-B
04:38PM 48.1305 -119.7580 291° West 439 505 38,000  Level FlightAware ADS-B
04:39PM 48.1522 -119.8440 291° West 437 503 38,000  Level FlightAware ADS-B
04:39PM 48.1736 -119.9290 291° West 439 505 38,000  Level FlightAware ADS-B
04:40PM 48.1954 -120.0160 291° West 443 510 38,000  Level FlightAware ADS-B
04:40PM 48.2168 -120.1020 291° West 444 511 38,000  Level FlightAware ADS-B
04:41PM 48.2385 -120.1890 291° West 447 514 38,000  Level FlightAware ADS-B
04:41PM 48.2601 -120.2760 290° West 449 517 38,000  Level FlightAware ADS-B
04:42PM 48.2820 -120.3640 291° West 445 512 38,000  Level FlightAware ADS-B
04:42PM 48.3013 -120.4430 290° West 444 511 38,000  Level FlightAware ADS-B (CYWH)
04:42PM 48.3034 -120.4520 289° West 447 514 38,000  Level FlightAware ADS-B
04:43PM 48.3250 -120.5400 290° West 447 514 38,000  Level FlightAware ADS-B
04:43PM 48.3308 -120.5633 291° West 443 510 38,000  Level FlightAware ADS-B (CYWH)
04:43PM 48.3475 -120.6320 290° West 445 512 38,000  Level FlightAware ADS-B
04:43PM 48.3537 -120.6571 290° West 441 507 38,000  Level FlightAware ADS-B (CYWH)
04:44PM 48.3685 -120.7180 290° West 444 511 38,000  Level FlightAware ADS-B
04:44PM 48.3821 -120.7745 290° West 441 507 38,000  Level FlightAware ADS-B (CYWH)
04:44PM 48.3900 -120.8070 290° West 444 511 38,000  Level FlightAware ADS-B
04:45PM 48.4046 -120.8677 290° West 441 507 38,000  Level FlightAware ADS-B (CYWH)
04:45PM 48.4110 -120.8940 290° West 444 511 38,000  Level FlightAware ADS-B
04:45PM 48.4168 -120.9181 290° West 444 511 38,000  Level FlightAware ADS-B (EPKK / KRK)
04:45PM 48.4319 -120.9810 290° West 445 512 38,000  Level FlightAware ADS-B
04:46PM 48.4486 -121.0507 290° West 445 512 38,000  Level FlightAware ADS-B (EPKK / KRK)
04:46PM 48.4529 -121.0690 290° West 445 512 38,000  Level FlightAware ADS-B
04:46PM 48.4697 -121.1393 290° West 444 511 38,000  Level FlightAware ADS-B (CYWH)
04:46PM 48.4757 -121.1640 290° West 446 513 38,000  Level FlightAware ADS-B
04:47PM 48.4953 -121.2473 290° West 446 513 38,000  Level FlightAware ADS-B (EPKK / KRK)
04:47PM 48.4974 -121.2560 290° West 446 513 38,000  Level FlightAware ADS-B
04:47PM 48.5185 -121.3450 290° West 447 514 38,000  Level FlightAware ADS-B
04:47PM 48.5205 -121.3538 289° West 447 514 38,000  Level FlightAware ADS-B (EPKK / KRK)
04:48PM 48.5392 -121.4330 290° West 447 514 38,000  Level FlightAware ADS-B
04:48PM 48.5535 -121.4945 289° West 447 514 38,000  Level FlightAware ADS-B (EPKK / KRK)
04:48PM 48.5604 -121.5240 290° West 448 516 38,000  Level FlightAware ADS-B
04:49PM 48.5812 -121.6130 289° West 447 514 38,000  Level FlightAware ADS-B
04:49PM 48.6020 -121.7020 289° West 447 514 38,000  Level FlightAware ADS-B
04:49PM 48.6086 -121.7311 289° West 447 514 38,000  Level FlightAware ADS-B (CYWH)
04:50PM 48.6224 -121.7910 289° West 448 516 38,000  Level FlightAware ADS-B
04:50PM 48.6366 -121.8525 289° West 448 516 38,000  Level FlightAware ADS-B (CYWH)
04:50PM 48.6429 -121.8800 289° West 448 516 38,000  Level FlightAware ADS-B
04:51PM 48.6589 -121.9492 289° West 448 516 38,000  Level FlightAware ADS-B (CYWH)
04:51PM 48.6635 -121.9690 289° West 448 516 38,000  Level FlightAware ADS-B
04:51PM 48.6837 -122.0580 289° West 447 514 38,000  Level FlightAware ADS-B
04:52PM 48.7041 -122.1470 289° West 447 514 38,000  Level FlightAware ADS-B
04:52PM 48.7078 -122.1641 288° West 447 514 38,000  Level FlightAware ADS-B (CYWH)
04:52PM 48.7243 -122.2370 289° West 447 514 38,000  Level FlightAware ADS-B
04:53PM 48.7348 -122.2828 289° West 447 514 38,000  Level FlightAware ADS-B (CYWH)
04:53PM 48.7445 -122.3260 289° West 448 516 38,000  Level FlightAware ADS-B
04:53PM 48.7561 -122.3781 289° West 448 516 38,000  Level FlightAware ADS-B (EPKK / KRK)
04:53PM 48.7648 -122.4170 289° West 448 516 38,000  Level FlightAware ADS-B
04:54PM 48.7807 -122.4860 289° West 448 516 38,000  Level FlightAware ADS-B
04:54PM 48.7835 -122.4969 292° West 448 516 38,000  Level FlightAware ADS-B (EPKK / KRK)
04:54PM 48.7969 -122.5390 296° West 448 516 38,000  Level FlightAware ADS-B
04:54PM 48.8140 -122.5820 301° West 448 516 38,000  Level FlightAware ADS-B
04:55PM 48.8378 -122.6330 305° West 448 516 38,000  Level FlightAware ADS-B
04:55PM 48.8504 -122.6598 305° West 448 516 38,000  Level FlightAware ADS-B (CYWH)
04:55PM 48.8738 -122.7100 305° West 448 516 38,000  Level FlightAware ADS-B
04:55PM 48.8905 -122.7458 305° West 447 514 38,000  Level FlightAware ADS-B (CYCD)
04:56PM 48.9193 -122.8080 305° West 447 514 38,000  Level FlightAware ADS-B
04:56PM 48.9188 -122.8067 120° Southeast 448 516 38,000  Level FlightAware ADS-B (EPKK / KRK)
04:56PM 48.9558 -122.8860 305° West 449 517 38,000  Level FlightAware ADS-B
04:57PM 48.9735 -122.9244 305° West 448 516 38,000  Level FlightAware ADS-B (CYCD)
04:57PM 48.9933 -122.9670 305° West 449 517 38,000  Level FlightAware ADS-B
04:57PM 49.0104 -123.0042 305° West 449 517 38,000  Level FlightAware ADS-B (CYWH)
04:57PM 49.0290 -123.0440 305° West 448 516 38,000  Level FlightAware ADS-B
04:58PM 49.0577 -123.1069 305° West 449 517 38,000  Level FlightAware ADS-B (CYWH)
04:58PM 49.0651 -123.1230 305° West 449 517 38,000  Level FlightAware ADS-B
04:58PM 49.0966 -123.1929 305° West 450 518 38,000  Level FlightAware ADS-B (CYWH)
04:58PM 49.0977 -123.1960 298° West 451 519 38,000  Level FlightAware ADS-B
04:59PM 49.1309 -123.2779 302° West 453 521 38,000  Level FlightAware ADS-B (EPKK / KRK)
04:59PM 49.1326 -123.2820 303° West 453 521 38,000  Level FlightAware ADS-B
04:59PM 49.1766 -123.3922 301° West 449 517 38,000  Level FlightAware ADS-B (CYWH)
05:00PM 49.1996 -123.4490 302° West 453 521 38,000  Level FlightAware ADS-B
05:00PM 49.2084 -123.4705 302° West 453 521 38,000  Level FlightAware ADS-B (CYCD)
05:00PM 49.2374 -123.5410 302° West 452 520 38,000  Level FlightAware ADS-B
05:01PM 49.2480 -123.5674 302° West 452 520 38,000  Level FlightAware ADS-B (EPKK / KRK)
05:01PM 49.2716 -123.6250 302° West 452 520 38,000  Level FlightAware ADS-B
05:01PM 49.2828 -123.6530 302° West 452 520 38,000  Level FlightAware ADS-B (CYWH)
05:01PM 49.3049 -123.7070 302° West 452 520 38,000  Level FlightAware ADS-B
05:02PM 49.3203 -123.7452 302° West 452 520 38,000  Level FlightAware ADS-B (EPKK / KRK)
05:02PM 49.3381 -123.7890 302° West 453 521 38,000  Level FlightAware ADS-B
05:02PM 49.3574 -123.8371 302° West 454 522 38,000  Level FlightAware ADS-B (CYCD)
05:02PM 49.3726 -123.8750 302° West 453 521 38,000  Level FlightAware ADS-B
05:03PM 49.3860 -123.9082 302° West 454 522 38,000  Level FlightAware ADS-B (EPKK / KRK)
05:03PM 49.4059 -123.9580 302° West 454 522 38,000  Level FlightAware ADS-B
05:03PM 49.4344 -124.0291 302° West 452 520 38,000  Level FlightAware ADS-B (EPKK / KRK)
05:04PM 49.4723 -124.1243 302° West 452 520 38,000  Level FlightAware ADS-B (CYCD)
05:04PM 49.5030 -124.2016 301° West 453 521 38,000  Level FlightAware ADS-B (EPKK / KRK)
05:05PM 49.5516 -124.3245 301° West 451 519 38,000  Level FlightAware ADS-B (EPKK / KRK)
05:05PM 49.5601 -124.3460 301° West 451 519 38,000  Level FlightAware ADS-B
05:06PM 49.5928 -124.4290 301° West 451 519 38,000  Level FlightAware ADS-B
05:06PM 49.5982 -124.4428 301° West 451 519 38,000  Level FlightAware ADS-B (EPKK / KRK)
05:06PM 49.6347 -124.5360 301° West 452 520 38,000  Level FlightAware ADS-B
05:07PM 49.6423 -124.5552 301° West 453 521 38,000  Level FlightAware ADS-B (EPKK / KRK)
05:07PM 49.6888 -124.6746 301° West 453 521 38,000  Level FlightAware ADS-B (EPKK / KRK)
05:08PM 49.7337 -124.7900 301° West 455 524 38,000  Level FlightAware ADS-B (CYCD)
05:09PM 49.7747 -124.8960 301° West 452 520 38,000  Level FlightAware ADS-B (EPKK / KRK)
05:09PM 49.8192 -125.0113 301° West 452 520 38,000  Level FlightAware ADS-B (CYCD)
05:10PM 49.8728 -125.1512 301° West 452 520 38,000  Level FlightAware ADS-B (EPKK / KRK)
05:11PM 49.9229 -125.2824 301° West 451 519 38,000  Level FlightAware ADS-B (CYCD)
05:12PM 49.9659 -125.3958 301° West 451 519 38,000  Level FlightAware ADS-B (CYCD)
05:12PM 50.0016 -125.4902 300° West 453 521 38,000  Level FlightAware ADS-B (CYCD)
05:13PM 50.0314 -125.5693 300° West 455 524 38,000  Level FlightAware ADS-B (CYCD)
05:13PM 50.0677 -125.6661 300° West 454 522 38,000  Level FlightAware ADS-B (CYCD)
05:14PM 50.1080 -125.7737 300° West 454 522 38,000  Level FlightAware ADS-B (CYCD)
05:15PM 50.1922 -126.0001 300° West 454 522 38,000  Level FlightAware ADS-B (CYCD)
05:16PM 50.2500 -126.2333 300° West 450 518 38,000  Level Vancouver Center
05:17PM 50.3167 -126.3833 305° West 450 518 38,000  Level Vancouver Center
05:18PM 50.3833 -126.5500 302° West 450 518 38,000  Level Vancouver Center
05:19PM 50.4333 -126.7333 293° West 450 518 38,000  Level Vancouver Center
05:20PM 50.5000 -126.9000 302° West 450 518 38,000  Level Vancouver Center
05:21PM 50.5667 -127.0667 302° West 450 518 38,000  Level Vancouver Center
05:22PM 50.6167 -127.2500 293° West 450 518 38,000  Level Vancouver Center
05:23PM 50.6833 -127.4167 302° West 450 518 38,000  Level Vancouver Center
05:24PM 50.7500 -127.5667 305° West 450 518 38,000  Level Vancouver Center
05:25PM 50.8500 -127.7333 314° West 450 518 38,000  Level Vancouver Center
05:26PM 50.9000 -127.9000 295° West 450 518 38,000  Level Vancouver Center
05:27PM 50.9667 -128.0667 302° West 450 518 38,000  Level Vancouver Center
05:28PM 51.0500 -128.2000 315° West 450 518 38,000  Level Vancouver Center
05:29PM 51.1167 -128.4000 298° West 450 518 38,000  Level Vancouver Center
05:30PM 51.1833 -128.5333 309° West 450 518 38,000  Level Vancouver Center
05:31PM 51.2500 -128.7167 300° West 450 518 38,000  Level Vancouver Center
05:32PM 51.3333 -128.8833 309° West 450 518 38,000  Level Vancouver Center
05:33PM 51.4000 -129.0500 303° West 450 518 38,000  Level Vancouver Center
05:34PM 51.4667 -129.2167 303° West 450 518 38,000  Level Vancouver Center
05:35PM 51.5500 -129.3833 309° West 450 518 38,000  Level Vancouver Center
05:36PM 51.6000 -129.5500 296° West 450 518 38,000  Level Vancouver Center
05:37PM 51.6833 -129.7333 306° West 450 518 38,000  Level Vancouver Center
05:38PM 51.7333 -129.8667 301° West 450 518 38,000  Level Vancouver Center
05:39PM 51.8167 -130.0333 309° West 450 518 38,000  Level Vancouver Center
05:40PM 51.8833 -130.2167 301° West 450 518 38,000  Level Vancouver Center
05:41PM 51.9500 -130.3833 303° West 450 518 38,000  Level Vancouver Center
05:42PM 52.0167 -130.5667 301° West 450 518 38,000  Level Vancouver Center
05:43PM 52.1000 -130.7333 309° West 450 518 38,000  Level Vancouver Center
05:44PM 52.1500 -130.9000 296° West 450 518 38,000  Level Vancouver Center
05:45PM 52.2167 -131.0500 306° West 450 518 38,000  Level Vancouver Center
05:46PM 52.3000 -131.2333 307° West 450 518 38,000  Level Vancouver Center
05:47PM 52.3500 -131.4000 296° West 450 518 38,000  Level Vancouver Center
05:48PM 52.4333 -131.5833 307° West 450 518 38,000  Level Vancouver Center
05:49PM 52.4833 -131.7500 296° West 450 518 38,000  Level Vancouver Center
05:50PM 52.5500 -131.9333 301° West 450 518 38,000  Level Vancouver Center
05:51PM 52.6167 -132.1167 301° West 450 518 38,000  Level Vancouver Center
05:52PM 52.6833 -132.2833 303° West 460 529 38,000  Level Vancouver Center
05:53PM 52.7500 -132.4667 301° West 450 518 38,000  Level Vancouver Center
05:54PM 52.8167 -132.6500 301° West 460 529 38,000  Level Vancouver Center
05:55PM 52.8667 -132.8333 294° West 460 529 38,000  Level Vancouver Center
05:56PM 52.9500 -133.0167 307° West 460 529 38,000  Level Vancouver Center
05:57PM 53.0167 -133.2000 301° West 460 529 38,000  Level Vancouver Center
05:58PM 53.0833 -133.3833 301° West 460 529 38,000  Level Vancouver Center
05:59PM 53.1333 -133.5500 297° West 460 529 38,000  Level Vancouver Center
06:00PM 53.2000 -133.7333 301° West 460 529 38,000  Level Vancouver Center
06:01PM 53.2667 -133.9167 301° West 460 529 38,000  Level Vancouver Center
06:02PM 53.3500 -134.1167 305° West 460 529 38,000  Level Vancouver Center
06:03PM 53.4000 -134.2833 297° West 460 529 38,000  Level Vancouver Center
06:04PM 53.4667 -134.4833 299° West 460 529 38,000  Level Vancouver Center
06:05PM 53.5333 -134.6667 302° West 460 529 38,000  Level Vancouver Center
06:06PM 53.5833 -134.8500 295° West 460 529 38,000  Level Vancouver Center
06:07PM 53.6500 -135.0333 302° West 460 529 38,000  Level Vancouver Center
06:08PM 53.7167 -135.2167 302° West 460 529 38,000  Level Vancouver Center
06:09PM 53.7833 -135.4167 299° West 460 529 38,000  Level Vancouver Center
06:10PM 53.8167 -135.4667 318° Northwest 470 541 38,000  Level Anchorage Center
06:11PM 53.8833 -135.6500 302° West 460 529 38,000  Level Anchorage Center
06:12PM 53.9333 -135.8500 293° West 470 541 38,000  Level Anchorage Center
06:13PM 54.0000 -136.0500 300° West 460 529 38,000  Level Anchorage Center
06:14PM 54.0500 -136.2667 292° West 470 541 38,000  Level Anchorage Center
06:15PM 54.0833 -136.4667 286° West 470 541 38,000  Level Anchorage Center
06:16PM 54.1167 -136.6500 287° West 470 541 38,000  Level Anchorage Center
06:17PM 54.1667 -136.8500 293° West 470 541 38,000  Level Anchorage Center
06:18PM 54.2167 -137.0667 292° West 470 541 38,000  Level Anchorage Center
06:19PM 54.2500 -137.2833 285° West 470 541 38,000  Level Anchorage Center
06:20PM 54.3000 -137.4833 293° West 470 541 38,000  Level Anchorage Center
06:21PM 54.3333 -137.7000 285° West 470 541 38,000  Level Anchorage Center
06:22PM 54.3833 -137.9167 292° West 480 552 38,000  Level Anchorage Center
06:23PM 54.4167 -138.1167 286° West 460 529 38,000  Level Anchorage Center
06:24PM 54.4500 -138.3333 285° West 470 541 38,000  Level Anchorage Center
06:25PM 54.5000 -138.5500 292° West 470 541 38,000  Level Anchorage Center
06:26PM 54.5333 -138.7667 285° West 470 541 38,000  Level Anchorage Center
06:27PM 54.5667 -138.9833 285° West 470 541 38,000  Level Anchorage Center
06:28PM 54.6167 -139.2000 292° West 460 529 38,000  Level Anchorage Center
06:29PM 54.6500 -139.4000 286° West 460 529 38,000  Level Anchorage Center
06:30PM 54.6833 -139.6167 285° West 470 541 38,000  Level Anchorage Center
06:31PM 54.7167 -139.8333 285° West 470 541 38,000  Level Anchorage Center
06:32PM 54.7667 -140.0667 290° West 480 552 38,000  Level Anchorage Center
06:33PM 54.8000 -140.2833 285° West 470 541 38,000  Level Anchorage Center
06:34PM 54.8333 -140.4833 286° West 470 541 38,000  Level Anchorage Center
06:35PM 54.8667 -140.7000 285° West 460 529 38,000  Level Anchorage Center
06:36PM 54.9167 -140.9667 288° West 460 529 38,000  Level Anchorage Center
06:37PM 54.9500 -141.1833 285° West 460 529 38,000  Level Anchorage Center
06:38PM 54.9833 -141.4000 285° West 470 541 38,000  Level Anchorage Center
06:39PM 55.0167 -141.6167 285° West 470 541 38,000  Level Anchorage Center
06:40PM 55.0500 -141.8333 285° West 460 529 38,000  Level Anchorage Center
06:41PM 55.0833 -142.0500 285° West 460 529 38,000  Level Anchorage Center
06:54PM 55.4667 -144.8500 282° West 470 541 38,000  Level Anchorage Center
06:55PM 55.4396 -144.6790 282° West  Level FlightAware Approximate
06:55PM 55.4833 -145.0667 278° West 470 541 38,000  Level Anchorage Center
06:56PM 55.4661 -144.8953 282° West  Level FlightAware Approximate
06:56PM 55.5167 -145.2500 288° West 470 541 38,000  Level Anchorage Center
06:57PM 55.4955 -145.1107 284° West  Level FlightAware Approximate
06:57PM 55.5500 -145.5167 283° West 460 529 38,000  Level Anchorage Center
06:58PM 55.5247 -145.3263 284° West  Level FlightAware Approximate
06:58PM 55.5667 -145.7500 277° West 470 541 38,000  Level Anchorage Center
06:59PM 55.5531 -145.5424 282° West  Level FlightAware Approximate
06:59PM 55.6000 -145.9833 284° West 480 552 38,000  Level Anchorage Center
06:59PM 55.6000 -146.0167 282° West 475 547 38,000  Level Oakland Oceanic (ODAPS)
07:00PM 55.6333 -146.2167 282° West 470 541 38,000  Level Anchorage Center
07:01PM 55.6500 -146.4333 278° West 470 541 38,000  Level Anchorage Center
07:02PM 55.6833 -146.6667 284° West 460 529 38,000  Level Anchorage Center
07:03PM 55.7000 -146.8833 278° West 470 541 38,000  Level Anchorage Center
07:04PM 55.7333 -147.1167 284° West 470 541 38,000  Level Anchorage Center
07:05PM 55.7500 -147.3500 277° West 470 541 38,000  Level Anchorage Center
07:06PM 55.7833 -147.5833 284° West 460 529 38,000  Level Anchorage Center
07:07PM 55.8000 -147.7667 279° West 460 529 38,000  Level Anchorage Center
07:07PM 55.8167 -147.9000 280° West 471 542 38,000  Level Oakland Oceanic (ODAPS)
07:08PM 55.8167 -148.0333 280° West 470 541 38,000  Level Anchorage Center
07:09PM 55.8333 -148.2167 279° West 460 529 38,000  Level Anchorage Center
07:10PM 55.8667 -148.4500 284° West 470 541 38,000  Level Anchorage Center
07:11PM 55.8833 -148.6833 277° West 460 529 38,000  Level Anchorage Center
07:12PM 55.9000 -148.9000 278° West 460 529 38,000  Level Anchorage Center
07:13PM 55.9167 -149.1333 277° West 460 529 38,000  Level Anchorage Center
07:14PM 55.9333 -149.3667 277° West 460 529 38,000  Level Anchorage Center
07:15PM 55.9667 -149.5833 285° West 460 529 38,000  Level Anchorage Center
07:16PM 55.9833 -149.8167 277° West 460 529 38,000  Level Anchorage Center
07:17PM 56.0000 -150.0000 284° West 476 548 38,000  Level Oakland Oceanic (ODAPS)
07:18PM 56.0333 -150.2667 284° West 450 518 38,000  Level Anchorage Center
07:19PM 56.0667 -150.5000 284° West 460 529 38,000  Level Anchorage Center
07:20PM 56.1000 -150.7333 284° West 460 529 38,000  Level Anchorage Center
07:21PM 56.1333 -150.9667 284° West 460 529 38,000  Level Anchorage Center
07:21PM 56.1500 -151.0667 284° West 484 557 38,000  Level Oakland Oceanic (ODAPS)
07:23PM 56.2000 -151.4333 284° West 480 552 38,000  Level Anchorage Center
07:30PM 56.3833 -153.0500 282° West 460 529 38,000  Level Anchorage Center
07:31PM 56.4167 -153.3000 284° West 480 552 38,000  Level Anchorage Center
07:32PM 56.4500 -153.5333 285° West 480 552 38,000  Level Anchorage Center
07:33PM 56.4200 -153.3333 283° West  Level FlightAware Approximate
07:33PM 56.4667 -153.7667 277° West 480 552 38,000  Level Anchorage Center
07:34PM 56.4454 -153.5555 282° West  Level FlightAware Approximate
07:34PM 56.5000 -154.0000 285° West 470 541 38,000  Level Anchorage Center
07:35PM 56.4704 -153.7779 282° West  Level FlightAware Approximate
07:35PM 56.5167 -154.2500 277° West 470 541 38,000  Level Anchorage Center
07:36PM 56.5500 -154.4833 285° West 470 541 38,000  Level Anchorage Center
07:37PM 56.5667 -154.7167 277° West 470 541 38,000  Level Anchorage Center
07:38PM 56.6000 -154.9667 284° West 480 552 38,000  Level Anchorage Center
07:39PM 56.6167 -155.2000 277° West 480 552 38,000  Level Anchorage Center
07:40PM 56.6333 -155.4500 277° West 480 552 38,000  Level Anchorage Center
07:41PM 56.6667 -155.6833 285° West 480 552 38,000  Level Anchorage Center
07:42PM 56.6833 -155.9333 277° West 480 552 38,000  Level Anchorage Center
07:43PM 56.7167 -156.1667 285° West 480 552 38,000  Level Anchorage Center
07:44PM 56.7333 -156.4167 277° West 480 552 38,000  Level Anchorage Center
07:45PM 56.7500 -156.6667 277° West 480 552 38,000  Level Anchorage Center
07:46PM 56.7667 -156.9000 278° West 480 552 38,000  Level Anchorage Center
07:47PM 56.8000 -157.1500 284° West 480 552 38,000  Level Anchorage Center
07:48PM 56.8167 -157.4000 277° West 480 552 38,000  Level Anchorage Center
07:49PM 56.8333 -157.6333 278° West 480 552 38,000  Level Anchorage Center
07:50PM 56.8500 -157.8833 277° West 480 552 38,000  Level Anchorage Center
07:51PM 56.8667 -158.1333 277° West 480 552 38,000  Level Anchorage Center
07:52PM 56.8833 -158.3833 277° West 480 552 38,000  Level Anchorage Center
07:53PM 56.9000 -158.6333 277° West 480 552 38,000  Level Anchorage Center
07:54PM 56.9167 -158.8667 278° West 480 552 38,000  Level Anchorage Center
07:55PM 56.9333 -159.1167 277° West 480 552 38,000  Level Anchorage Center
07:56PM 56.9500 -159.3667 277° West 480 552 38,000  Level Anchorage Center
07:57PM 56.9667 -159.6333 277° West 480 552 38,000  Level Anchorage Center
07:58PM 56.9833 -159.8833 277° West 490 564 38,000  Level Anchorage Center
07:59PM 56.9833 -160.1167 270° West 470 541 38,000  Level Anchorage Center
08:00PM 56.9667 -160.3667 263° West 480 552 38,000  Level Anchorage Center
08:01PM 56.9500 -160.6167 263° West 490 564 38,000  Level Anchorage Center
08:02PM 56.9333 -160.8667 263° West 480 552 38,000  Level Anchorage Center
08:03PM 56.9167 -161.1167 263° West 480 552 38,000  Level Anchorage Center
08:04PM 56.9000 -161.3667 263° West 490 564 38,000 60 Level Anchorage Center
08:05PM 56.8833 -161.6000 263° West 470 541 38,200 480 Climbing Anchorage Center
08:06PM 56.8667 -161.8500 263° West 490 564 39,000 360 Climbing Anchorage Center
08:07PM 56.8500 -162.1000 263° West 480 552 39,000  Level Anchorage Center
08:08PM 56.8333 -162.3500 263° West 480 552 39,000  Level Anchorage Center
08:09PM 56.8167 -162.5833 263° West 480 552 39,000  Level Anchorage Center
08:10PM 56.8000 -162.8333 263° West 480 552 39,000  Level Anchorage Center
08:11PM 56.7667 -163.0667 255° West 470 541 39,000  Level Anchorage Center
08:12PM 56.7500 -163.3167 263° West 470 541 39,000  Level Anchorage Center
08:13PM 56.7333 -163.5500 263° West 470 541 39,000  Level Anchorage Center
08:14PM 56.7167 -163.8000 263° West 470 541 39,000  Level Anchorage Center
08:15PM 56.6833 -164.0833 258° West 470 541 39,000  Level Anchorage Center
08:16PM 56.6667 -164.3167 263° West 470 541 39,000  Level Anchorage Center
08:17PM 56.6500 -164.5500 263° West 470 541 39,000  Level Anchorage Center
08:18PM 56.6167 -164.8000 256° West 480 552 39,000 480 Level Anchorage Center
08:19PM 56.6000 -165.0333 263° West 470 541 40,000 480 Climbing Anchorage Center
08:20PM 56.5667 -165.2667 256° West 470 541 40,000  Level Anchorage Center
08:21PM 56.5500 -165.5000 263° West 470 541 40,000  Level Anchorage Center
08:22PM 56.5167 -165.7333 256° West 470 541 40,000  Level Anchorage Center
08:23PM 56.5000 -165.9667 263° West 470 541 40,000  Level Anchorage Center
08:24PM 56.4667 -166.2000 256° West 470 541 40,000  Level Anchorage Center
08:25PM 56.4500 -166.4167 262° West 460 529 40,000  Level Anchorage Center
08:26PM 56.4167 -166.6500 256° West 460 529 40,000  Level Anchorage Center
08:27PM 56.4000 -166.8833 263° West 460 529 40,000  Level Anchorage Center
08:28PM 56.3667 -167.1167 256° West 460 529 40,000  Level Anchorage Center
08:29PM 56.3333 -167.3500 256° West 470 541 40,000  Level Anchorage Center
08:30PM 56.3167 -167.5833 263° West 470 541 40,000  Level Anchorage Center
08:31PM 56.2833 -167.8167 256° West 470 541 40,000  Level Anchorage Center
08:32PM 56.2500 -168.0500 256° West 470 541 40,000  Level Anchorage Center
08:33PM 56.2333 -168.2833 263° West 470 541 40,000  Level Anchorage Center
08:34PM 56.2000 -168.5000 255° West 460 529 40,000  Level Anchorage Center
08:35PM 56.1833 -168.7333 263° West 470 541 40,000  Level Anchorage Center
08:36PM 56.1667 -168.9667 263° West 460 529 40,000  Level Anchorage Center
08:37PM 56.1667 -169.2000 270° West 450 518 40,000  Level Anchorage Center
08:38PM 56.1500 -169.4333 263° West 470 541 40,000  Level Anchorage Center
08:39PM 56.1500 -169.6667 270° West 470 541 40,000  Level Anchorage Center
08:40PM 56.1333 -169.9000 263° West 470 541 40,000  Level Anchorage Center
08:41PM 56.1333 -170.1333 270° West 470 541 40,000  Level Anchorage Center
08:42PM 56.1167 -170.3667 263° West 460 529 40,000  Level Anchorage Center
08:43PM 56.1167 -170.5833 270° West 450 518 40,000  Level Anchorage Center
08:44PM 56.1000 -170.8167 263° West 450 518 40,000  Level Anchorage Center
08:45PM 56.1000 -171.0500 270° West 460 529 40,000  Level Anchorage Center
08:46PM 56.0833 -171.2833 263° West 460 529 40,000  Level Anchorage Center
08:47PM 56.0667 -171.5167 263° West 460 529 40,000  Level Anchorage Center
08:48PM 56.0667 -171.7500 270° West 470 541 40,000  Level Anchorage Center
08:49PM 56.0500 -171.9667 262° West 450 518 40,000  Level Anchorage Center
08:50PM 56.0333 -172.2000 263° West 460 529 40,000  Level Anchorage Center
08:51PM 56.0167 -172.4333 263° West 460 529 40,000  Level Anchorage Center
08:52PM 56.0000 -172.6667 263° West 460 529 40,000  Level Anchorage Center
08:53PM 56.0000 -172.9000 270° West 470 541 40,000  Level Anchorage Center
08:54PM 55.9833 -173.1333 263° West 460 529 40,000  Level Anchorage Center
08:55PM 55.9667 -173.3667 263° West 480 552 40,000  Level Anchorage Center
08:56PM 55.9500 -173.6000 263° West 470 541 40,000  Level Anchorage Center
08:57PM 55.9333 -173.8333 263° West 470 541 40,000  Level Anchorage Center
08:58PM 55.9167 -174.0667 263° West 470 541 40,000  Level Anchorage Center
08:59PM 55.9000 -174.3000 263° West 460 529 40,000  Level Anchorage Center
09:00PM 55.8833 -174.5333 263° West 470 541 40,000  Level Anchorage Center
09:01PM 55.8667 -174.7667 263° West 470 541 40,000  Level Anchorage Center
09:02PM 55.8500 -175.0000 263° West 470 541 40,000  Level Anchorage Center
09:03PM 55.8333 -175.2333 263° West 470 541 40,000  Level Anchorage Center
09:04PM 55.8167 -175.4667 263° West 470 541 40,000  Level Anchorage Center
09:05PM 55.8000 -175.6833 262° West 470 541 40,000  Level Anchorage Center
09:06PM 55.7667 -175.9167 256° West 470 541 40,000  Level Anchorage Center
09:07PM 55.7500 -176.1500 263° West 470 541 40,000  Level Anchorage Center
09:08PM 55.7333 -176.3833 263° West 470 541 40,000  Level Anchorage Center
09:09PM 55.7000 -176.6167 256° West 470 541 40,000  Level Anchorage Center
09:10PM 55.6833 -176.8500 263° West 470 541 40,000  Level Anchorage Center
09:21PM 55.4667 -179.1000 258° West 481 554 40,000  Level Anchorage Center
09:30PM 55.2000 178.7167 256° West 479 551 40,000  Level Anchorage Center
09:37PM 54.9500 177.1833 254° West 470 541 40,000  Level Anchorage Center
09:38PM 54.9351 176.8984 255° West 479 551 40,000  Level FlightAware Transoceanic
09:38PM 54.9333 176.9833 262° West 470 541 40,000  Level Anchorage Center
09:39PM 54.9001 176.6729 255° West 479 551 40,000  Level FlightAware Transoceanic
09:39PM 54.9000 176.7500 256° West 470 541 40,000  Level Anchorage Center
09:40PM 54.8647 176.4477 255° West 479 551 40,000  Level FlightAware Transoceanic
09:40PM 54.8500 176.5000 251° West 480 552 40,000  Level Anchorage Center
09:41PM 54.8289 176.2229 254° West 479 551 40,000  Level FlightAware Transoceanic
09:41PM 54.8167 176.3000 254° West 480 552 40,000  Level Anchorage Center
09:42PM 54.7926 175.9986 254° West 479 551 40,000  Level FlightAware Transoceanic
09:42PM 54.7833 176.0500 257° West 490 564 40,000  Level Anchorage Center
09:43PM 54.7500 175.8667 253° West 480 552 40,000  Level Anchorage Center
09:44PM 54.7167 175.6167 257° West 480 552 40,000  Level Anchorage Center
09:45PM 54.6833 175.4167 254° West 480 552 40,000  Level Anchorage Center
09:46PM 54.6500 175.1833 256° West 490 564 40,000  Level Anchorage Center
09:47PM 54.6167 174.9833 254° West 490 564 40,000  Level Anchorage Center
09:48PM 54.5667 174.7333 251° West 490 564 40,000  Level Anchorage Center
09:49PM 54.5167 174.4833 251° West 500 575 40,000  Level Anchorage Center
09:50PM 54.4833 174.2833 254° West 500 575 40,000  Level Anchorage Center
09:51PM 54.4500 174.0333 257° West 490 564 40,000  Level Anchorage Center
09:52PM 54.4167 173.8333 254° West 500 575 40,000  Level Anchorage Center
09:53PM 54.3667 173.5833 251° West 510 587 40,000  Level Anchorage Center
09:54PM 54.3333 173.3833 254° West 500 575 40,000  Level Anchorage Center
09:55PM 54.2833 173.1333 251° West 490 564 40,000  Level Anchorage Center
09:56PM 54.2333 172.8833 251° West 520 598 40,000  Level Anchorage Center
09:57PM 54.2000 172.7000 253° West 490 564 40,000  Level Anchorage Center
09:58PM 54.1167 172.4833 237° Southwest 480 552 40,000  Level Anchorage Center
09:59PM 54.0500 172.3167 236° Southwest 490 564 40,000  Level Anchorage Center
10:00PM 53.9667 172.1167 235° Southwest 490 564 40,000  Level Anchorage Center
10:01PM 53.9000 171.9500 236° Southwest 480 552 40,000  Level Anchorage Center
10:02PM 53.8167 171.7500 235° Southwest 490 564 40,000  Level Anchorage Center
10:03PM 53.7500 171.6000 233° Southwest 480 552 40,000  Level Anchorage Center
10:04PM 53.6667 171.4000 235° Southwest 490 564 40,000  Level Anchorage Center
10:05PM 53.5833 171.2000 235° Southwest 470 541 40,000  Level Anchorage Center
10:06PM 53.5167 171.0500 233° Southwest 470 541 40,000  Level Anchorage Center
10:07PM 53.4167 170.8500 230° Southwest 480 552 40,000  Level Anchorage Center
10:08PM 53.3500 170.7000 233° Southwest 480 552 40,000  Level Anchorage Center
10:09PM 53.2667 170.5000 235° Southwest 470 541 40,000  Level Anchorage Center
10:10PM 53.2000 170.3500 233° Southwest 480 552 40,000  Level Anchorage Center
10:11PM 53.1167 170.1500 235° Southwest 480 552 40,000  Level Anchorage Center
10:12PM 53.0333 169.9667 233° Southwest 480 552 40,000  Level Anchorage Center
10:13PM 52.9667 169.8000 236° Southwest 490 564 40,000  Level Anchorage Center
10:14PM 52.8833 169.5833 238° Southwest 490 564 40,000  Level Anchorage Center
10:15PM 52.8333 169.4167 244° Southwest 470 541 40,000  Level Anchorage Center
10:16PM 52.7667 169.2167 241° Southwest 480 552 40,000  Level Anchorage Center
10:17PM 52.7167 169.0500 244° Southwest 460 529 40,000  Level Anchorage Center
10:18PM 52.6333 168.8500 236° Southwest 480 552 40,000  Level Anchorage Center
10:19PM 52.5667 168.6333 243° Southwest 480 552 40,000  Level Anchorage Center
10:20PM 52.5000 168.4667 237° Southwest 500 575 40,000  Level Anchorage Center
10:21PM 52.4333 168.2667 241° Southwest 470 541 40,000  Level Anchorage Center
10:22PM 52.3667 168.1000 237° Southwest 490 564 40,000  Level Anchorage Center
10:23PM 52.3000 167.9000 241° Southwest 470 541 40,000  Level Anchorage Center
10:24PM 52.2500 167.7333 244° Southwest 490 564 40,000  Level Anchorage Center
10:25PM 52.1667 167.5333 236° Southwest 490 564 40,000  Level Anchorage Center
10:28PM 52.0167 167.0667 239° Southwest 476 548 40,000  Level Anchorage Center
10:36PM 51.4333 165.5500 238° Southwest 479 551 40,000  Level Anchorage Center
10:37PM 51.3333 165.3167 238° Southwest 481 554 40,000  Level Anchorage Center
10:42PM 50.9500 164.3833 237° Southwest 472 543 40,000  Level Anchorage Center
10:47PM 50.6500 163.6500 236° Southwest 478 550 40,000  Level Anchorage Center
10:56PM 49.9333 162.0000 235° Southwest 489 563 40,000  Level Anchorage Center
11:02PM 49.4833 161.0333 234° Southwest 483 556 40,000  Level Anchorage Center
11:03PM 49.4350 160.9227 234° Southwest 489 563 40,000  Level FlightAware Transoceanic
11:04PM 49.3630 160.7706 234° Southwest 489 563 40,000  Level FlightAware Transoceanic
11:05PM 49.2908 160.6189 234° Southwest 489 563 40,000  Level FlightAware Transoceanic
11:06PM 49.2184 160.4677 234° Southwest 489 563 40,000  Level FlightAware Transoceanic
11:07PM 49.1458 160.3169 234° Southwest 489 563 40,000  Level FlightAware Transoceanic
11:08PM 49.0000 160.0167 233° Southwest 483 556 40,000  Level FlightAware Transoceanic
11:09PM 48.9235 159.8605 233° Southwest 483 556 40,000  Level FlightAware Transoceanic
11:10PM 48.8467 159.7049 233° Southwest 483 556 40,000  Level FlightAware Transoceanic
11:11PM 48.7697 159.5497 233° Southwest 483 556 40,000  Level FlightAware Transoceanic
11:12PM 48.6926 159.3951 233° Southwest 483 556 40,000  Level FlightAware Transoceanic
11:13PM 48.6152 159.2408 233° Southwest 483 556 40,000  Level FlightAware Transoceanic
11:14PM 48.5376 159.0871 233° Southwest 483 556 40,000  Level FlightAware Transoceanic
11:15PM 48.4599 158.9338 232° Southwest 483 556 40,000  Level FlightAware Transoceanic
11:16PM 48.3819 158.7810 232° Southwest 483 556 40,000  Level FlightAware Transoceanic
11:17PM 48.3037 158.6287 232° Southwest 483 556 40,000  Level FlightAware Transoceanic
11:18PM 48.2253 158.4768 232° Southwest 483 556 40,000  Level FlightAware Transoceanic
11:19PM 48.1467 158.3254 232° Southwest 483 556 40,000  Level FlightAware Transoceanic
11:20PM 48.0679 158.1745 232° Southwest 483 556 40,000  Level FlightAware Transoceanic
11:21PM 47.9889 158.0240 232° Southwest 483 556 40,000  Level FlightAware Transoceanic
11:22PM 47.9098 157.8740 232° Southwest 483 556 40,000  Level FlightAware Transoceanic
11:23PM 47.8304 157.7244 232° Southwest 483 556 40,000  Level FlightAware Transoceanic
11:24PM 47.7508 157.5753 231° Southwest 483 556 40,000  Level FlightAware Transoceanic
11:25PM 47.6711 157.4267 231° Southwest 483 556 40,000  Level FlightAware Transoceanic
11:26PM 47.5911 157.2785 231° Southwest 483 556 40,000  Level FlightAware Transoceanic
11:27PM 47.5110 157.1308 231° Southwest 483 556 40,000  Level FlightAware Transoceanic
11:28PM 47.4306 156.9835 231° Southwest 483 556 40,000  Level FlightAware Transoceanic
11:29PM 47.3501 156.8366 231° Southwest 483 556 40,000  Level FlightAware Transoceanic
11:30PM 47.2694 156.6902 231° Southwest 483 556 40,000  Level FlightAware Transoceanic
11:31PM 47.1885 156.5443 231° Southwest 483 556 40,000  Level FlightAware Transoceanic
11:32PM 47.1075 156.3988 231° Southwest 483 556 40,000  Level FlightAware Transoceanic
11:33PM 47.0262 156.2538 231° Southwest 483 556 40,000  Level FlightAware Transoceanic
11:34PM 46.9448 156.1091 230° Southwest 483 556 40,000  Level FlightAware Transoceanic
11:35PM 46.8631 155.9650 230° Southwest 483 556 40,000  Level FlightAware Transoceanic
11:36PM 46.7813 155.8212 230° Southwest 483 556 40,000  Level FlightAware Transoceanic
11:37PM 46.6993 155.6779 230° Southwest 483 556 40,000  Level FlightAware Transoceanic
11:38PM 46.6172 155.5351 230° Southwest 483 556 40,000  Level FlightAware Transoceanic
11:39PM 46.5349 155.3926 230° Southwest 483 556 40,000  Level FlightAware Transoceanic
11:40PM 46.4523 155.2506 230° Southwest 483 556 40,000  Level FlightAware Transoceanic
11:41PM 46.3696 155.1091 230° Southwest 483 556 40,000  Level FlightAware Transoceanic
11:42PM 46.2868 154.9679 230° Southwest 483 556 40,000  Level FlightAware Transoceanic
11:43PM 46.2037 154.8272 229° Southwest 483 556 40,000  Level FlightAware Transoceanic
11:44PM 46.1205 154.6869 229° Southwest 483 556 40,000  Level FlightAware Transoceanic
11:45PM 46.0372 154.5470 229° Southwest 483 556 40,000  Level FlightAware Transoceanic
11:46PM 45.9536 154.4076 229° Southwest 483 556 40,000  Level FlightAware Transoceanic
11:47PM 45.8699 154.2686 229° Southwest 483 556 40,000  Level FlightAware Transoceanic
11:48PM 45.7860 154.1300 229° Southwest 483 556 40,000  Level FlightAware Transoceanic
11:49PM 45.7019 153.9918 229° Southwest 483 556 40,000  Level FlightAware Transoceanic
11:50PM 45.6177 153.8540 229° Southwest 483 556 40,000  Level FlightAware Transoceanic
11:51PM 45.5264 153.7298 224° Southwest  Level FlightAware Approximate
11:52PM 45.4349 153.6061 224° Southwest  Level FlightAware Approximate
11:53PM 45.4426 153.5979 228° Southwest  Level FlightAware Approximate
11:54PM 45.3586 153.4639 228° Southwest  Level FlightAware Approximate
11:55PM 45.2745 153.3303 228° Southwest  Level FlightAware Approximate
11:56PM 45.1902 153.1971 228° Southwest  Level FlightAware Approximate
11:57PM 45.1058 153.0643 228° Southwest  Level FlightAware Approximate
11:58PM 45.0212 152.9319 228° Southwest  Level FlightAware Approximate
11:59PM 44.9365 152.7999 228° Southwest  Level FlightAware Approximate
12:00AM 44.8516 152.6682 228° Southwest  Level FlightAware Approximate
12:01AM 44.7666 152.5370 228° Southwest  Level FlightAware Approximate
12:02AM 44.6814 152.4061 228° Southwest  Level FlightAware Approximate
12:03AM 44.5960 152.2756 227° Southwest  Level FlightAware Approximate
12:04AM 44.5106 152.1455 227° Southwest  Level FlightAware Approximate
12:05AM 44.4249 152.0158 227° Southwest  Level FlightAware Approximate
12:06AM 44.3391 151.8865 227° Southwest  Level FlightAware Approximate
12:07AM 44.2532 151.7575 227° Southwest  Level FlightAware Approximate
12:08AM 44.1672 151.6289 227° Southwest  Level FlightAware Approximate
12:09AM 44.0810 151.5007 227° Southwest  Level FlightAware Approximate
12:10AM 43.9946 151.3729 227° Southwest  Level FlightAware Approximate
12:11AM 43.9081 151.2454 227° Southwest  Level FlightAware Approximate
12:12AM 43.8215 151.1183 227° Southwest  Level FlightAware Approximate
12:13AM 43.7347 150.9916 227° Southwest  Level FlightAware Approximate
12:14AM 43.6478 150.8653 226° Southwest  Level FlightAware Approximate
12:15AM 43.5607 150.7393 226° Southwest  Level FlightAware Approximate
12:16AM 43.4748 150.6155 226° Southwest  Level FlightAware Approximate
12:17AM 43.3888 150.4921 226° Southwest  Level FlightAware Approximate
12:18AM 43.3026 150.3691 226° Southwest  Level FlightAware Approximate
12:19AM 43.2163 150.2464 226° Southwest  Level FlightAware Approximate
12:20AM 43.1299 150.1240 226° Southwest  Level FlightAware Approximate
12:21AM 43.0434 150.0020 226° Southwest  Level FlightAware Approximate
12:22AM 42.9567 149.8803 226° Southwest  Level FlightAware Approximate
12:23AM 42.8699 149.7590 226° Southwest  Level FlightAware Approximate
12:24AM 42.7829 149.6380 226° Southwest  Level FlightAware Approximate
12:25AM 42.6959 149.5173 226° Southwest  Level FlightAware Approximate
12:26AM 42.6087 149.3970 225° Southwest  Level FlightAware Approximate
12:27AM 42.5213 149.2771 225° Southwest  Level FlightAware Approximate
12:28AM 42.4339 149.1574 225° Southwest  Level FlightAware Approximate
12:29AM 42.3463 149.0381 225° Southwest  Level FlightAware Approximate
12:30AM 42.2586 148.9191 225° Southwest  Level FlightAware Approximate
12:31AM 42.1708 148.8005 225° Southwest  Level FlightAware Approximate
12:32AM 42.0829 148.6822 225° Southwest  Level FlightAware Approximate
12:33AM 41.9949 148.5642 225° Southwest  Level FlightAware Approximate
12:34AM 41.9067 148.4465 225° Southwest  Level FlightAware Approximate
12:35AM 41.8184 148.3292 225° Southwest  Level FlightAware Approximate
12:36AM 41.7299 148.2123 224° Southwest  Level FlightAware Approximate
12:37AM 41.6405 148.0968 224° Southwest  Level FlightAware Approximate
12:38AM 41.5510 147.9816 224° Southwest  Level FlightAware Approximate
12:39AM 41.4614 147.8667 224° Southwest  Level FlightAware Approximate
12:40AM 41.3719 147.7525 224° Southwest  Level FlightAware Approximate
12:41AM 41.2823 147.6386 224° Southwest  Level FlightAware Approximate
12:42AM 41.1926 147.5250 224° Southwest  Level FlightAware Approximate
12:43AM 41.1028 147.4117 224° Southwest  Level FlightAware Approximate
12:44AM 41.0129 147.2987 223° Southwest  Level FlightAware Approximate
12:45AM 40.9229 147.1861 223° Southwest  Level FlightAware Approximate
12:46AM 40.8327 147.0737 223° Southwest  Level FlightAware Approximate
12:47AM 40.7425 146.9617 223° Southwest  Level FlightAware Approximate
12:48AM 40.6521 146.8499 223° Southwest  Level FlightAware Approximate
12:49AM 40.5617 146.7385 223° Southwest  Level FlightAware Approximate
12:50AM 40.4711 146.6273 223° Southwest  Level FlightAware Approximate
12:51AM 40.3804 146.5165 223° Southwest  Level FlightAware Approximate
12:52AM 40.2896 146.4060 223° Southwest  Level FlightAware Approximate
12:53AM 40.1988 146.2957 223° Southwest  Level FlightAware Approximate
12:54AM 40.1078 146.1858 223° Southwest  Level FlightAware Approximate
12:55AM 40.0167 146.0761 223° Southwest  Level FlightAware Approximate
12:56AM 39.9255 145.9667 223° Southwest  Level FlightAware Approximate
12:57AM 39.8342 145.8577 223° Southwest  Level FlightAware Approximate
12:58AM 39.7428 145.7489 222° Southwest  Level FlightAware Approximate
12:59AM 39.6513 145.6404 222° Southwest  Level FlightAware Approximate
01:00AM 39.5597 145.5322 222° Southwest  Level FlightAware Approximate
01:01AM 39.4680 145.4242 222° Southwest  Level FlightAware Approximate
01:02AM 39.3762 145.3166 222° Southwest  Level FlightAware Approximate
01:03AM 39.2843 145.2092 222° Southwest  Level FlightAware Approximate
01:04AM 39.1923 145.1022 222° Southwest  Level FlightAware Approximate
01:05AM 39.1002 144.9954 222° Southwest  Level FlightAware Approximate
01:06AM 39.0080 144.8889 222° Southwest  Level FlightAware Approximate
01:07AM 38.9157 144.7826 222° Southwest  Level FlightAware Approximate
01:08AM 38.8233 144.6767 222° Southwest  Level FlightAware Approximate
01:09AM 38.7307 144.5712 222° Southwest  Level FlightAware Approximate
01:10AM 38.6379 144.4660 222° Southwest  Level FlightAware Approximate
01:11AM 38.5450 144.3612 221° Southwest  Level FlightAware Approximate
01:12AM 38.4520 144.2566 221° Southwest  Level FlightAware Approximate
01:13AM 38.3590 144.1523 221° Southwest  Level FlightAware Approximate
01:14AM 38.2658 144.0482 221° Southwest  Level FlightAware Approximate
01:15AM 38.1726 143.9444 221° Southwest  Level FlightAware Approximate
01:16AM 38.0793 143.8409 221° Southwest  Level FlightAware Approximate
01:17AM 37.9859 143.7377 221° Southwest  Level FlightAware Approximate
01:18AM 37.8923 143.6347 221° Southwest  Level FlightAware Approximate
01:19AM 37.7986 143.5322 212° Southwest  Level FlightAware Approximate
01:20AM 37.6940 143.4482 212° Southwest  Level FlightAware Approximate
01:21AM 37.5894 143.3644 212° Southwest  Level FlightAware Approximate
01:22AM 37.4848 143.2809 212° Southwest  Level FlightAware Approximate
01:23AM 37.3801 143.1976 212° Southwest  Level FlightAware Approximate
01:24AM 37.2753 143.1145 212° Southwest  Level FlightAware Approximate
01:25AM 37.1704 143.0317 212° Southwest  Level FlightAware Approximate
01:26AM 37.0656 142.9491 213° Southwest  Level FlightAware Approximate
01:27AM 36.9613 142.8654 213° Southwest  Level FlightAware Approximate
01:28AM 36.8569 142.7819 213° Southwest  Level FlightAware Approximate
01:29AM 36.7526 142.6986 213° Southwest  Level FlightAware Approximate
01:30AM 36.6474 142.6171 212° Southwest  Level FlightAware Approximate
01:31AM 36.5420 142.5361 212° Southwest  Level FlightAware Approximate
01:32AM 36.4321 142.4654 219° Southwest  Level FlightAware Approximate
01:33AM 36.3287 142.3814 210° Southwest  Level FlightAware Approximate
01:34AM 36.2218 142.3037 210° Southwest  Level FlightAware Approximate
01:35AM 36.1150 142.2260 210° Southwest  Level FlightAware Approximate
01:36AM 36.0283 142.1311 260° West  Level FlightAware Approximate
01:37AM 35.9990 141.9827 252° West  Level FlightAware Approximate
01:38AM 35.9608 141.8371 252° West  Level FlightAware Approximate
01:39AM 35.9229 141.6915 253° West  Level FlightAware Approximate
01:40AM 35.8963 141.5430 265° West  Level FlightAware Approximate
01:41AM 35.8861 141.3906 265° West  Level FlightAware Approximate
01:42AM 35.8651 141.2402 258° West  Level FlightAware Approximate
01:43AM 35.8425 141.0900 261° West  Level FlightAware Approximate
01:44AM 35.8237 140.9390 261° West  Level FlightAware Approximate
01:45AM 35.8116 140.7873 262° West  Level FlightAware Approximate
01:46AM 35.7924 140.6374 258° West  Level FlightAware Approximate
01:47AM 35.7676 140.4887 258° West  Level FlightAware Approximate
01:48AM 35.7500 140.3833 253° West  Level FlightAware Approximate
01:49AM 35.7647 140.3864 253° West  Level Estimated
01:50AM 35.7647 140.3864 253° West  Level Estimated
01:51AM 35.7647 140.3864 253° West  Level Estimated
01:52AM 35.7647 140.3864 253° West  Level Estimated
01:53AM 35.7647 140.3864 253° West  Level Estimated
01:54AM 35.7647 140.3864 253° West  Level Estimated
01:55AM 35.7647 140.3864 253° West  Level Estimated
01:56AM 35.7647 140.3864 253° West  Level Estimated
01:57AM 35.7647 140.3864 253° West  Level Estimated
01:58AM 35.7647 140.3864 253° West  Level Estimated
01:59AM 35.7647 140.3864 253° West  Level Estimated
02:00AM 35.7647 140.3864 253° West  Level Estimated
02:01AM 35.7647 140.3864 253° West  Level Estimated
02:02AM 35.7647 140.3864 253° West  Level Estimated
02:03AM 35.7647 140.3864 253° West  Level Estimated
02:04AM 35.7647 140.3864 253° West  Level Estimated
02:05AM 35.7647 140.3864 253° West  Level Estimated
02:06AM 35.7647 140.3864 253° West  Level Estimated
02:07AM 35.7647 140.3864 253° West  Level Estimated
02:08AM 35.7647 140.3864 253° West  Level Estimated
02:09AM 35.7647 140.3864 253° West  Level Estimated
02:10AM 35.7647 140.3864 253° West  Level Estimated
02:11AM 35.7647 140.3864 253° West  Level Estimated
02:12AM 35.7647 140.3864 253° West  Level Estimated
02:13AM 35.7647 140.3864 253° West  Level Estimated
02:14AM 35.7647 140.3864 253° West  Level Estimated
02:15AM 35.7647 140.3864 253° West  Level Estimated
02:16AM 35.7647 140.3864 253° West  Level Estimated
02:17AM 35.7647 140.3864 253° West  Level Estimated
02:18AM 35.7647 140.3864 253° West  Level Estimated